No se requiere un especial cuidado respecto a la situación meteorológica.   -   No hay avisos

Informes METAR

 

LEZL - Sevilla, Spain
Distancia de la estación: ENE 8km
Actualización: 25/03/2017 08:30
Lluvia, Muy nuboso
Lluvia, Muy nuboso
 Viento de S
Viento: S 6 km/h
Temperatura: 10°C
Rocío: 9°C
Humedad: 94%
Barómetro: 1015 hPa
Resumen: Lluvia
Nubes: Muy nuboso
Visibilidad: 6 km
Detalles de las nubes: Muy nuboso 488 m
Muy nuboso 914 m
2017/03/25 07:30 LEZL 250730Z 17003KT 120V230 6000 RA BKN016 BKN030 10/09 Q1015 NOSIG
LEMO - Morón, Spain
Distancia de la estación: SE 43km
Actualización: 25/03/2017 08:00
Parcialmente nuboso
Parcialmente nuboso
 Viento de S
Viento: S 20 km/h
Temperatura: 9°C
Sensación térmica: 6°C
Rocío: 6°C
Humedad: 82%
Barómetro: 1015 hPa
Nubes: Parcialmente nuboso
Visibilidad: 10 km
Detalles de las nubes: Parcialmente nuboso 975 m
Parcialmente nuboso 1372 m
2017/03/25 07:00 LEMO 250700Z 17011KT 9999 SCT032 SCT045 09/06 Q1015 NOSIG
LEJR - Jeréz, Spain
Distancia de la estación: S 71km
Actualización: 25/03/2017 08:30
Lluvia débil, Muy nuboso
Lluvia débil, Muy nuboso
 Viento de SSE
Viento: SSE 17 km/h
Temperatura: 11°C
Rocío: 9°C
Humedad: 88%
Barómetro: 1015 hPa
Resumen: Lluvia débil
Nubes: Muy nuboso
Visibilidad: 10 km
Detalles de las nubes: Parcialmente nuboso 610 m
Muy nuboso 1067 m
2017/03/25 07:30 LEJR 250730Z 15009KT 120V200 9999 -RA SCT020 BKN035 11/09 Q1015
 
LERT - Rota, Spain
Distancia de la estación: SSO 89km
Actualización: 25/03/2017 08:00
Lluvia débil, Chubascos, Muy nuboso
Lluvia débil, Chubascos, Muy nuboso
 Viento de SSO
Viento: SSO 35 km/h, Racha: 59 km/h
Temperatura: 12°C
Rocío: 8°C
Humedad: 77%
Barómetro: 1015 hPa
Resumen: Lluvia débil, Chubascos
Nubes: Muy nuboso
Visibilidad: 9 km
Detalles de las nubes: Poco nuboso 274 m
Muy nuboso 914 m
2017/03/25 07:00 LERT 250700Z 21019G32KT 180V250 9000 -SHRA FEW009TCU BKN030 12/08 Q1015 NOSIG
LEMG - Málaga, Spain
Distancia de la estación: ESE 157km
Actualización: 25/03/2017 08:30
Muy nuboso
Muy nuboso
 Viento de ONO
Viento: ONO 7 km/h
Temperatura: 7°C
Sensación térmica: 6°C
Rocío: 5°C
Humedad: 87%
Barómetro: 1018 hPa
Nubes: Muy nuboso
Visibilidad: 10 km
Detalles de las nubes: Poco nuboso 610 m
Muy nuboso 1219 m
2017/03/25 07:30 LEMG 250730Z 29004KT 260V320 9999 FEW020 BKN040 07/05 Q1018 NOSIG
LEBA - Córdoba, Spain
Distancia de la estación: ENE 115km
Actualización: 25/03/2017 08:30
Muy nuboso
Muy nuboso
 Viento de E
Viento: E 13 km/h
Temperatura: 7°C
Sensación térmica: 5°C
Rocío: 5°C
Humedad: 87%
Barómetro: 1017 hPa
Nubes: Muy nuboso
Visibilidad: 10 km
Detalles de las nubes: Muy nuboso 1372 m
2017/03/25 07:30 LEBA 250730Z 08007KT 9999 BKN045 07/05 Q1017
 
LEGR - Granada, Spain
Distancia de la estación: E 198km
Actualización: 25/03/2017 08:30
Poco nuboso
Poco nuboso
 Viento de calm
Viento: Calma
Temperatura: 2°C
Rocío: 1°C
Humedad: 93%
Barómetro: 1018 hPa
Nubes: Poco nuboso
Visibilidad: 10 km
Detalles de las nubes: Poco nuboso 914 m
2017/03/25 07:30 LEGR 250730Z 00000KT 9999 FEW030 02/01 Q1018
LEAM - Almería, Spain
Distancia de la estación: E 326km
Actualización: 25/03/2017 08:30
Despejado
Despejado
 Viento de NNO
Viento: NNO 13 km/h
Temperatura: 10°C
Sensación térmica: 8°C
Rocío: 2°C
Humedad: 58%
Barómetro: 1018 hPa
Resumen: Despejado
Visibilidad: mayor de 10 km
2017/03/25 07:30 LEAM 250730Z 33007KT CAVOK 10/02 Q1018
LEMD - Madrid/Barajas, Spain
Distancia de la estación: NNE 402km
Actualización: 25/03/2017 08:30
Niebla helada, Cubierto
Niebla helada, Cubierto
 Viento de SSE
Viento: SSE 4 km/h
Temperatura: 0°C
Rocío: -1°C
Humedad: 93%
Barómetro: 1015 hPa
Resumen: Niebla helada
Nubes: Cubierto
Visibilidad: 0 km
Detalles de las nubes: Cubierto 30 m
2017/03/25 07:30 LEMD 250730Z 16002KT 0400 R32L/0600N R32R/0750D FZFG VV001 M00/M01 Q1015 NOSIG
 
LEVD - Valladolid, Spain
Distancia de la estación: N 492km
Actualización: 25/03/2017 08:30
Parcialmente nuboso
Parcialmente nuboso
 Viento de calm
Viento: Calma
Temperatura: 0°C
Rocío: -1°C
Humedad: 93%
Barómetro: 1012 hPa
Nubes: Parcialmente nuboso
Visibilidad: 8 km
2017/03/25 07:30 LEVD 250730Z 00000KT 8000 NSC 00/M01 Q1012
LEBL - Barcelona, Spain
Distancia de la estación: NE 816km
Actualización: 25/03/2017 08:30
Parcialmente nuboso
Parcialmente nuboso
 Viento de SSO
Viento: SSO 13 km/h
Temperatura: 9°C
Sensación térmica: 7°C
Rocío: 5°C
Humedad: 76%
Barómetro: 1014 hPa
Nubes: Parcialmente nuboso
Visibilidad: 10 km
Detalles de las nubes: Parcialmente nuboso 853 m
2017/03/25 07:30 LEBL 250730Z 21007KT 9999 SCT028 09/05 Q1014 NOSIG
LEVC - Valencia, Spain
Distancia de la estación: ENE 535km
Actualización: 25/03/2017 08:30
Poco nuboso
Poco nuboso
 Viento de OSO
Viento: OSO 20 km/h
Temperatura: 10°C
Sensación térmica: 7°C
Rocío: 1°C
Humedad: 54%
Barómetro: 1015 hPa
Nubes: Poco nuboso
Visibilidad: 10 km
Detalles de las nubes: Poco nuboso 671 m
2017/03/25 07:30 LEVC 250730Z 25011KT 9999 FEW022 10/01 Q1015 NOSIG